Time;durP1;ratioP1;P1;durP2;ratioP2;P2;SDS_P1;SDS_P2;PMS_P1;PMS_P2;Temp;Humidity;BMP_temperature;BMP_pressure;BME280_temperature;BME280_humidity;BME280_pressure;Samples;Min_cycle;Max_cycle;Signal;HPM_P1;HPM_P2
2022/09/08 00:01:34;;;;;;;;;5.20;4.20;29.30;99.90;;;;;;4957777;28;8858;-65
2022/09/08 00:04:09;;;;;;;;;4.20;4.20;29.20;99.90;;;;;;4948535;28;9574;-66
2022/09/08 00:06:41;;;;;;;;;5.00;5.00;28.80;99.90;;;;;;4950590;28;8857;-65
2022/09/08 00:09:11;;;;;;;;;6.00;6.00;28.40;99.90;;;;;;4947186;28;8909;-65
2022/09/08 00:11:42;;;;;;;;;6.80;5.80;28.20;99.90;;;;;;4957774;28;8867;-65
2022/09/08 00:14:13;;;;;;;;;7.60;6.80;28.00;99.90;;;;;;4954431;28;8978;-65
2022/09/08 00:16:42;;;;;;;;;4.60;4.00;27.80;99.90;;;;;;4982684;28;8870;-65
2022/09/08 00:19:14;;;;;;;;;4.00;4.00;27.70;99.90;;;;;;4972621;28;8855;-68
2022/09/08 00:21:49;;;;;;;;;5.60;5.60;27.60;99.90;;;;;;4976840;28;8836;-70
2022/09/08 00:24:23;;;;;;;;;4.20;4.20;27.50;99.90;;;;;;4956318;28;8867;-65
2022/09/08 00:26:53;;;;;;;;;5.40;5.20;27.40;99.90;;;;;;4963704;28;8859;-66
2022/09/08 00:29:23;;;;;;;;;5.00;5.00;27.40;99.90;;;;;;4959793;28;8909;-69
2022/09/08 00:31:55;;;;;;;;;5.00;5.00;27.30;99.90;;;;;;4961231;28;8854;-69
2022/09/08 00:34:29;;;;;;;;;6.00;6.00;27.30;99.90;;;;;;4984394;28;8861;-65
2022/09/08 00:37:02;;;;;;;;;6.00;6.00;27.20;99.90;;;;;;4987433;28;8873;-66
2022/09/08 00:39:33;;;;;;;;;5.60;5.60;27.30;99.90;;;;;;4958221;28;9031;-68
2022/09/08 00:42:06;;;;;;;;;5.00;5.00;27.20;99.90;;;;;;4986366;28;8874;-68
2022/09/08 00:44:38;;;;;;;;;5.00;5.00;27.20;99.90;;;;;;4962124;28;8850;-69
2022/09/08 00:47:18;;;;;;;;;4.20;4.20;27.10;99.90;;;;;;4955421;28;8852;-68
2022/09/08 00:49:58;;;;;;;;;4.00;4.00;27.10;99.90;;;;;;4955433;28;8858;-65
2022/09/08 00:52:37;;;;;;;;;4.00;4.00;27.10;99.90;;;;;;4981761;28;8874;-65
2022/09/08 00:55:11;;;;;;;;;5.60;5.60;27.00;99.90;;;;;;4965988;28;8847;-65
2022/09/08 00:57:42;;;;;;;;;4.00;4.00;27.00;99.90;;;;;;4957320;28;8909;-69
2022/09/08 01:00:24;;;;;;;;;4.40;4.40;27.00;99.90;;;;;;4955821;28;8847;-65
2022/09/08 01:02:57;;;;;;;;;2.40;2.40;27.00;99.90;;;;;;4957856;28;8917;-66
2022/09/08 01:05:57;;;;;;;;;3.20;3.20;26.90;99.90;;;;;;4956623;28;8878;-65
2022/09/08 01:14:53;;;;;;;;;4.80;4.00;26.70;99.90;;;;;;4945691;28;8907;-65
2022/09/08 01:17:31;;;;;;;;;5.00;5.00;26.80;99.90;;;;;;4969824;28;8867;-66
2022/09/08 01:20:07;;;;;;;;;4.00;4.00;26.70;99.90;;;;;;4957127;28;8874;-66
2022/09/08 01:23:31;;;;;;;;;4.80;4.80;26.80;99.90;;;;;;4958145;28;8858;-65
2022/09/08 01:26:19;;;;;;;;;6.00;4.00;26.90;99.90;;;;;;4958962;28;8864;-64
2022/09/08 01:29:00;;;;;;;;;4.00;4.00;26.80;99.90;;;;;;4958839;28;8869;-65
2022/09/08 01:31:32;;;;;;;;;4.00;3.20;26.80;99.90;;;;;;4954935;28;8918;-65
2022/09/08 01:34:05;;;;;;;;;4.20;4.20;26.80;99.90;;;;;;4959671;28;8878;-69
2022/09/08 01:36:39;;;;;;;;;5.00;5.00;26.80;99.90;;;;;;4956644;28;9542;-69
2022/09/08 01:39:10;;;;;;;;;3.40;3.40;26.70;99.90;;;;;;4958594;28;9645;-69
2022/09/08 01:41:41;;;;;;;;;2.40;2.00;26.70;99.90;;;;;;4956957;28;8864;-68
2022/09/08 01:44:14;;;;;;;;;3.80;3.80;26.80;99.90;;;;;;4955615;28;8846;-65
2022/09/08 01:46:45;;;;;;;;;4.80;4.80;26.80;99.90;;;;;;4954457;28;8897;-66
2022/09/08 01:49:17;;;;;;;;;3.60;3.60;26.80;99.90;;;;;;4933234;28;8855;-66
2022/09/08 01:51:47;;;;;;;;;3.00;3.00;26.90;99.90;;;;;;4951578;28;9944;-64
2022/09/08 01:54:20;;;;;;;;;4.80;4.80;26.90;99.90;;;;;;4963707;28;8865;-65
2022/09/08 01:56:54;;;;;;;;;3.00;3.00;26.80;99.90;;;;;;4957936;28;8843;-65
2022/09/08 01:59:25;;;;;;;;;3.80;3.80;26.70;99.90;;;;;;4954347;28;8854;-68
2022/09/08 02:01:55;;;;;;;;;5.00;5.00;26.60;99.90;;;;;;4967513;28;8901;-68
2022/09/08 02:04:28;;;;;;;;;3.60;3.60;26.60;99.90;;;;;;4951703;28;8902;-66
2022/09/08 02:06:58;;;;;;;;;3.00;3.00;26.50;99.90;;;;;;4955016;28;9592;-67
2022/09/08 02:09:30;;;;;;;;;2.60;2.60;26.40;99.90;;;;;;4938957;28;8847;-65
2022/09/08 02:12:00;;;;;;;;;4.00;4.00;26.50;99.90;;;;;;4951812;28;8843;-64
2022/09/08 02:14:35;;;;;;;;;4.00;4.00;26.50;99.90;;;;;;4952150;28;8838;-66
2022/09/08 02:17:06;;;;;;;;;3.20;3.20;26.40;99.90;;;;;;4983723;28;8885;-67
2022/09/08 02:19:37;;;;;;;;;5.00;5.00;26.60;99.90;;;;;;4978443;28;8843;-67
2022/09/08 02:22:07;;;;;;;;;5.00;5.00;26.70;99.90;;;;;;4957188;28;8823;-66
2022/09/08 02:24:37;;;;;;;;;6.00;6.00;26.70;99.90;;;;;;4965660;28;8857;-66
2022/09/08 02:27:10;;;;;;;;;4.20;4.20;26.70;99.90;;;;;;4973737;28;8822;-65
2022/09/08 02:29:49;;;;;;;;;4.80;4.20;26.70;99.90;;;;;;4951526;28;8846;-66
2022/09/08 02:32:24;;;;;;;;;4.00;3.40;26.60;99.90;;;;;;4957444;28;8869;-65
2022/09/08 02:34:57;;;;;;;;;3.60;3.60;26.40;99.90;;;;;;4954670;28;8862;-67
2022/09/08 02:37:26;;;;;;;;;5.00;5.00;26.40;99.90;;;;;;4957594;28;8869;-68
2022/09/08 02:39:57;;;;;;;;;4.00;4.00;26.40;99.90;;;;;;4968409;28;9542;-68
2022/09/08 02:42:29;;;;;;;;;4.00;4.00;26.50;99.90;;;;;;4951997;28;8841;-68
2022/09/08 02:45:03;;;;;;;;;4.40;3.00;26.40;99.90;;;;;;4955746;28;8889;-65
2022/09/08 02:47:34;;;;;;;;;4.00;4.00;26.30;99.90;;;;;;4981755;28;8862;-65
2022/09/08 02:50:06;;;;;;;;;3.20;3.20;26.40;99.90;;;;;;4971491;28;8882;-67
2022/09/08 02:52:37;;;;;;;;;2.80;2.80;26.30;99.90;;;;;;4956819;28;9486;-66
2022/09/08 02:55:08;;;;;;;;;3.00;3.00;26.30;99.90;;;;;;4954702;28;8881;-67
2022/09/08 02:57:41;;;;;;;;;3.00;3.00;26.20;99.90;;;;;;4958860;28;8850;-67
2022/09/08 03:00:13;;;;;;;;;5.00;3.60;26.20;99.90;;;;;;4953584;28;8862;-65
2022/09/08 03:02:45;;;;;;;;;3.00;3.00;26.20;99.90;;;;;;4958805;28;8851;-66
2022/09/08 03:05:16;;;;;;;;;3.00;3.00;26.20;99.90;;;;;;4957162;28;10415;-67
2022/09/08 03:07:46;;;;;;;;;3.20;3.20;26.20;99.90;;;;;;4935556;28;9697;-67
2022/09/08 03:10:23;;;;;;;;;2.80;2.80;26.10;99.90;;;;;;4970346;28;8950;-66
2022/09/08 03:12:57;;;;;;;;;3.40;3.40;26.20;99.90;;;;;;4954202;28;8880;-67
2022/09/08 03:15:30;;;;;;;;;2.40;2.40;26.20;99.90;;;;;;4951823;28;8854;-68
2022/09/08 03:18:04;;;;;;;;;3.00;3.00;26.20;99.90;;;;;;4980347;28;8859;-67
2022/09/08 03:20:36;;;;;;;;;2.80;2.80;26.10;99.90;;;;;;4955481;28;8881;-66
2022/09/08 03:23:06;;;;;;;;;2.20;2.20;26.00;99.90;;;;;;4953866;28;8869;-66
2022/09/08 03:25:39;;;;;;;;;3.00;3.00;26.00;99.90;;;;;;4955299;28;8839;-64
2022/09/08 03:28:16;;;;;;;;;3.20;3.20;26.00;99.90;;;;;;4958164;28;8831;-65
2022/09/08 03:30:51;;;;;;;;;4.60;3.20;25.90;99.90;;;;;;4973930;28;8851;-64
2022/09/08 03:33:21;;;;;;;;;3.00;3.00;25.80;99.90;;;;;;4954712;28;8835;-70
2022/09/08 03:35:53;;;;;;;;;2.40;2.40;25.80;99.90;;;;;;4957429;28;8827;-69
2022/09/08 03:38:24;;;;;;;;;2.80;2.80;25.70;99.90;;;;;;4970666;28;8855;-69
2022/09/08 03:40:54;;;;;;;;;2.00;2.00;25.60;99.90;;;;;;4982959;28;8868;-68
2022/09/08 03:43:25;;;;;;;;;3.00;3.00;25.60;99.90;;;;;;4973683;28;8890;-68
2022/09/08 03:45:56;;;;;;;;;2.60;2.60;25.70;99.90;;;;;;4955101;28;8901;-67
2022/09/08 03:48:28;;;;;;;;;2.20;2.20;25.60;99.90;;;;;;4959092;28;8843;-65
2022/09/08 03:51:12;;;;;;;;;2.00;2.00;25.40;99.90;;;;;;4972044;28;8901;-65
2022/09/08 03:53:45;;;;;;;;;3.20;3.20;25.40;99.90;;;;;;4955437;28;8871;-65
2022/09/08 03:56:17;;;;;;;;;3.00;3.00;25.30;99.90;;;;;;4955112;28;8858;-64
2022/09/08 03:58:48;;;;;;;;;4.00;4.00;25.30;99.90;;;;;;4968769;28;8885;-68
2022/09/08 04:01:20;;;;;;;;;2.80;2.80;25.40;99.90;;;;;;4982329;28;8799;-68
2022/09/08 04:03:54;;;;;;;;;3.00;3.00;25.50;99.90;;;;;;4955513;28;8897;-69
2022/09/08 04:06:25;;;;;;;;;4.00;4.00;25.60;99.90;;;;;;4951916;28;8835;-68
2022/09/08 04:08:56;;;;;;;;;3.80;3.80;25.40;99.90;;;;;;4955039;28;8877;-68
2022/09/08 04:11:28;;;;;;;;;4.40;4.40;25.50;99.90;;;;;;4954948;28;8851;-68
2022/09/08 04:13:59;;;;;;;;;4.00;4.00;25.40;99.90;;;;;;4969520;28;9282;-68
2022/09/08 04:16:29;;;;;;;;;3.00;3.00;25.30;99.90;;;;;;4960156;28;8881;-69
2022/09/08 04:18:59;;;;;;;;;3.00;3.00;25.30;99.90;;;;;;4981883;28;8830;-68
2022/09/08 04:21:29;;;;;;;;;3.40;3.40;25.20;99.90;;;;;;4951038;28;8843;-68
2022/09/08 04:24:00;;;;;;;;;3.00;3.00;25.20;99.90;;;;;;4979828;28;8869;-65
2022/09/08 04:26:30;;;;;;;;;4.00;4.00;25.20;99.90;;;;;;4934556;28;8878;-64
2022/09/08 04:29:05;;;;;;;;;4.40;4.40;25.10;99.90;;;;;;4968635;28;8871;-68
2022/09/08 04:31:36;;;;;;;;;4.60;4.60;25.20;99.90;;;;;;4951980;28;8886;-68
2022/09/08 04:34:06;;;;;;;;;5.40;4.40;25.20;99.90;;;;;;4955523;28;8839;-68
2022/09/08 04:36:39;;;;;;;;;4.00;4.00;25.20;99.90;;;;;;4977675;28;9558;-67
2022/09/08 04:39:11;;;;;;;;;2.20;2.20;25.20;99.90;;;;;;4954472;28;8851;-67
2022/09/08 04:41:43;;;;;;;;;4.25;4.25;25.10;99.90;;;;;;4973625;28;8870;-68
2022/09/08 04:44:14;;;;;;;;;3.60;3.60;25.00;99.90;;;;;;4942178;28;8876;-65
2022/09/08 04:46:47;;;;;;;;;2.20;2.20;24.90;99.90;;;;;;4952506;28;8855;-66
2022/09/08 04:49:17;;;;;;;;;3.75;3.75;24.90;99.90;;;;;;4961819;28;8832;-68
2022/09/08 04:51:52;;;;;;;;;2.60;2.60;25.00;99.90;;;;;;4960568;28;8862;-68
2022/09/08 04:54:22;;;;;;;;;4.00;4.00;24.90;99.90;;;;;;4981404;28;8859;-66
2022/09/08 04:56:53;;;;;;;;;4.00;4.00;25.00;99.90;;;;;;4963186;28;8827;-67
2022/09/08 04:59:25;;;;;;;;;3.00;3.00;25.00;99.90;;;;;;4961757;28;9015;-66
2022/09/08 05:01:57;;;;;;;;;4.00;4.00;24.90;99.90;;;;;;4943926;28;8875;-68
2022/09/08 05:04:30;;;;;;;;;4.25;4.25;25.00;99.90;;;;;;4985295;28;8868;-65
2022/09/08 05:07:02;;;;;;;;;4.50;4.50;24.90;99.90;;;;;;4962655;28;8873;-64
2022/09/08 05:09:36;;;;;;;;;4.00;4.00;24.90;99.90;;;;;;4960343;28;9714;-65
2022/09/08 05:12:06;;;;;;;;;3.50;3.50;24.80;99.90;;;;;;4979284;28;8917;-66
2022/09/08 05:14:38;;;;;;;;;1.80;1.80;24.80;99.90;;;;;;4961513;28;8851;-64
2022/09/08 05:17:09;;;;;;;;;3.00;3.00;24.90;99.90;;;;;;4961018;28;8903;-65
2022/09/08 05:19:41;;;;;;;;;4.00;4.00;24.80;99.90;;;;;;4958813;28;8873;-66
2022/09/08 05:22:12;;;;;;;;;3.00;3.00;24.90;99.90;;;;;;4962696;28;8871;-67
2022/09/08 05:24:43;;;;;;;;;4.20;4.20;24.80;99.90;;;;;;4960500;28;8925;-68
2022/09/08 05:27:14;;;;;;;;;3.75;3.50;24.90;99.90;;;;;;4949576;28;8827;-67
2022/09/08 05:29:47;;;;;;;;;3.25;3.00;24.80;99.90;;;;;;4954920;28;8859;-67
2022/09/08 05:32:19;;;;;;;;;3.00;3.00;24.70;99.90;;;;;;4959130;28;8850;-67
2022/09/08 05:34:49;;;;;;;;;5.00;5.00;24.70;99.90;;;;;;4957224;28;8850;-65
2022/09/08 05:37:21;;;;;;;;;5.25;5.25;24.70;99.90;;;;;;4953046;28;8823;-65
2022/09/08 05:39:55;;;;;;;;;4.00;4.00;24.70;99.90;;;;;;4954756;28;8869;-67
2022/09/08 05:42:26;;;;;;;;;3.25;3.25;24.60;99.90;;;;;;4956299;28;8862;-66
2022/09/08 05:44:57;;;;;;;;;4.25;4.25;24.50;99.90;;;;;;4956826;28;8863;-67
2022/09/08 05:47:27;;;;;;;;;5.00;5.00;24.60;99.90;;;;;;4952927;28;8866;-68
2022/09/08 05:49:57;;;;;;;;;5.00;5.00;24.70;99.90;;;;;;4956270;28;8895;-67
2022/09/08 05:52:31;;;;;;;;;3.75;3.75;24.50;99.90;;;;;;4954708;28;8837;-67
2022/09/08 05:55:05;;;;;;;;;3.25;3.25;24.40;99.90;;;;;;4959788;28;8851;-67
2022/09/08 05:57:35;;;;;;;;;4.25;4.25;24.40;99.90;;;;;;4954092;28;8831;-66
2022/09/08 06:00:08;;;;;;;;;4.00;4.00;24.40;99.90;;;;;;4955144;28;8862;-67
2022/09/08 06:02:38;;;;;;;;;4.00;4.00;24.40;99.90;;;;;;4952708;28;8974;-67
2022/09/08 06:05:10;;;;;;;;;4.00;4.00;24.50;99.90;;;;;;4954578;28;8831;-66
2022/09/08 06:07:42;;;;;;;;;2.75;2.75;24.30;99.90;;;;;;4977539;28;8850;-66
2022/09/08 06:10:12;;;;;;;;;4.00;3.50;24.30;99.90;;;;;;4955854;28;8843;-65
2022/09/08 06:12:43;;;;;;;;;3.00;3.00;24.30;99.90;;;;;;4952723;28;8879;-65
2022/09/08 06:15:15;;;;;;;;;4.25;4.00;24.40;99.90;;;;;;4953715;28;8882;-66
2022/09/08 06:17:47;;;;;;;;;4.25;4.25;24.30;99.90;;;;;;4985134;28;8846;-66
2022/09/08 06:20:20;;;;;;;;;4.00;4.00;24.30;99.90;;;;;;4955626;28;9667;-67
2022/09/08 06:22:51;;;;;;;;;4.75;4.75;24.40;99.90;;;;;;4949275;28;8883;-68
2022/09/08 06:25:21;;;;;;;;;5.75;5.75;24.30;99.90;;;;;;4964251;28;8921;-67
2022/09/08 06:28:18;;;;;;;;;3.75;3.00;24.20;99.90;;;;;;4949168;28;8905;-66
2022/09/08 06:30:53;;;;;;;;;4.00;4.00;24.20;99.90;;;;;;4969582;28;9757;-65
2022/09/08 06:33:37;;;;;;;;;4.00;4.00;24.10;99.90;;;;;;4953962;28;8862;-67
2022/09/08 06:36:50;;;;;;;;;5.00;5.00;24.20;99.90;;;;;;4954520;28;8901;-66
2022/09/08 06:39:27;;;;;;;;;5.50;4.50;24.30;99.90;;;;;;4954452;28;9016;-66
2022/09/08 06:42:13;;;;;;;;;5.00;5.00;24.20;99.90;;;;;;4953267;28;8894;-66
2022/09/08 06:44:49;;;;;;;;;5.75;5.75;24.20;99.90;;;;;;4952815;28;8850;-67
2022/09/08 06:47:28;;;;;;;;;6.00;4.50;24.10;99.90;;;;;;4953675;28;8859;-67
2022/09/08 06:50:00;;;;;;;;;5.00;5.00;24.30;99.90;;;;;;4953463;28;8866;-66
2022/09/08 06:52:42;;;;;;;;;4.00;4.00;24.20;99.90;;;;;;4955334;28;8869;-65
2022/09/08 06:55:45;;;;;;;;;6.00;6.00;24.10;99.90;;;;;;4968433;28;9024;-68
2022/09/08 06:58:36;;;;;;;;;4.25;4.25;24.10;99.90;;;;;;4951261;28;9386;-66
2022/09/08 07:01:34;;;;;;;;;5.00;5.00;24.20;99.90;;;;;;4958455;28;8911;-66
2022/09/08 07:04:45;;;;;;;;;3.50;3.50;24.10;99.90;;;;;;4946231;28;8850;-66
2022/09/08 07:07:43;;;;;;;;;3.25;3.00;24.10;99.90;;;;;;4956172;28;8865;-66
2022/09/08 07:10:12;;;;;;;;;5.00;5.00;24.00;99.90;;;;;;4956417;28;8859;-67
2022/09/08 07:13:03;;;;;;;;;5.50;5.50;24.00;99.90;;;;;;4969886;28;8878;-67
2022/09/08 07:15:40;;;;;;;;;6.00;4.25;24.00;99.90;;;;;;4949713;28;8909;-67
2022/09/08 07:18:36;;;;;;;;;5.25;5.25;23.90;99.90;;;;;;4958010;28;8862;-68
2022/09/08 07:21:27;;;;;;;;;6.50;6.50;23.90;99.90;;;;;;4955523;28;8855;-67
2022/09/08 07:24:00;;;;;;;;;4.00;4.00;23.90;99.90;;;;;;4955021;28;8873;-64
2022/09/08 07:26:37;;;;;;;;;5.00;5.00;23.90;99.90;;;;;;4953255;28;8863;-65
2022/09/08 07:29:24;;;;;;;;;6.00;6.00;23.80;99.90;;;;;;4955434;28;8839;-66
2022/09/08 07:31:58;;;;;;;;;5.00;5.00;23.80;99.90;;;;;;4953429;28;8866;-71
2022/09/08 07:34:36;;;;;;;;;4.00;4.00;24.00;99.90;;;;;;4950436;28;8866;-65
2022/09/08 07:37:30;;;;;;;;;6.75;5.25;23.90;99.90;;;;;;4953884;28;9464;-65
2022/09/08 07:40:15;;;;;;;;;4.50;4.50;23.70;99.90;;;;;;4956358;28;8905;-67
2022/09/08 07:42:57;;;;;;;;;4.75;4.75;23.60;99.90;;;;;;4955675;28;8895;-67
2022/09/08 07:45:55;;;;;;;;;5.50;5.50;23.70;99.90;;;;;;4955762;28;8889;-65
2022/09/08 07:48:54;;;;;;;;;3.25;3.25;23.80;99.90;;;;;;4952942;28;8847;-65
2022/09/08 07:51:34;;;;;;;;;6.00;4.50;23.80;99.90;;;;;;4954088;28;8858;-65
2022/09/08 07:54:53;;;;;;;;;6.00;4.75;23.90;99.90;;;;;;4956174;28;8854;-65
2022/09/08 07:57:39;;;;;;;;;4.50;4.50;23.90;99.90;;;;;;4956079;28;8846;-66
2022/09/08 08:00:14;;;;;;;;;5.50;4.00;23.80;99.90;;;;;;4953736;28;8903;-67
2022/09/08 08:03:26;;;;;;;;;5.25;5.25;23.60;99.90;;;;;;4982076;28;9656;-65
2022/09/08 08:06:00;;;;;;;;;4.50;4.50;23.50;99.90;;;;;;4950957;28;8984;-64
2022/09/08 08:08:36;;;;;;;;;5.50;5.50;23.60;99.90;;;;;;4955535;28;8838;-67
2022/09/08 08:11:11;;;;;;;;;1.50;1.50;23.80;99.90;;;;;;4980228;28;8858;-67
2022/09/08 08:13:52;;;;;;;;;3.00;3.00;23.80;99.90;;;;;;4970731;28;8865;-64
2022/09/08 08:16:55;;;;;;;;;5.00;5.00;23.80;99.90;;;;;;4975445;28;8875;-65
2022/09/08 08:19:57;;;;;;;;;6.50;6.50;23.70;99.90;;;;;;4956926;28;8870;-68
2022/09/08 08:22:42;;;;;;;;;5.50;5.50;23.70;99.90;;;;;;4956656;28;8843;-67
2022/09/08 08:25:32;;;;;;;;;5.50;5.50;23.50;99.90;;;;;;4958646;28;8901;-67
2022/09/08 08:28:18;;;;;;;;;6.00;6.00;23.50;99.90;;;;;;4955782;28;8873;-66
2022/09/08 08:31:09;;;;;;;;;5.00;5.00;23.50;99.90;;;;;;4975601;28;8877;-66
2022/09/08 08:34:03;;;;;;;;;8.25;7.25;23.50;99.90;;;;;;4957129;28;10099;-65
2022/09/08 08:36:41;;;;;;;;;4.50;4.50;23.40;99.90;;;;;;4953920;28;8851;-66
2022/09/08 08:39:18;;;;;;;;;3.25;3.25;23.50;99.90;;;;;;4970384;28;9385;-67
2022/09/08 08:42:20;;;;;;;;;4.25;4.25;23.50;99.90;;;;;;4982199;28;8857;-68
2022/09/08 08:45:12;;;;;;;;;3.00;3.00;23.60;99.90;;;;;;4957002;28;8866;-68
2022/09/08 08:48:24;;;;;;;;;6.25;6.25;23.60;99.90;;;;;;4958036;28;8890;-66
2022/09/08 08:51:16;;;;;;;;;5.00;5.00;23.70;99.90;;;;;;4942026;28;8841;-67
2022/09/08 08:54:26;;;;;;;;;5.75;5.75;23.60;99.90;;;;;;4958110;28;8836;-67
2022/09/08 08:57:20;;;;;;;;;6.50;5.75;23.70;99.90;;;;;;4912519;29;8852;-67
2022/09/08 09:00:20;;;;;;;;;5.00;4.00;23.60;99.90;;;;;;4916883;29;8836;-67
2022/09/08 09:03:31;;;;;;;;;4.50;4.50;23.70;99.90;;;;;;4958981;28;9625;-67
2022/09/08 09:06:10;;;;;;;;;5.25;5.25;23.60;99.90;;;;;;4957171;28;8835;-68
2022/09/08 09:08:53;;;;;;;;;6.00;6.00;23.70;99.90;;;;;;4956081;28;8893;-65
2022/09/08 09:11:45;;;;;;;;;4.25;4.25;23.70;99.90;;;;;;4952348;28;9613;-67
2022/09/08 09:14:31;;;;;;;;;5.25;5.25;23.60;99.90;;;;;;4953196;28;8835;-66
2022/09/08 09:17:58;;;;;;;;;7.00;6.00;23.60;99.90;;;;;;4957678;28;8839;-66
2022/09/08 09:21:00;;;;;;;;;5.50;5.50;23.60;99.90;;;;;;4954996;28;8867;-66
2022/09/08 09:24:02;;;;;;;;;5.75;5.75;23.70;99.90;;;;;;4957022;28;8855;-67
2022/09/08 09:26:35;;;;;;;;;5.50;5.50;23.60;99.90;;;;;;4970950;28;8854;-67
2022/09/08 09:29:22;;;;;;;;;6.00;6.00;23.60;99.90;;;;;;4953194;28;8865;-67
2022/09/08 09:32:05;;;;;;;;;6.00;6.00;23.60;99.90;;;;;;4953394;28;8985;-67
2022/09/08 09:34:58;;;;;;;;;4.75;4.75;23.50;99.90;;;;;;4980164;28;8843;-67
2022/09/08 09:37:49;;;;;;;;;5.25;5.25;23.60;99.90;;;;;;4952518;28;8835;-68
2022/09/08 09:40:45;;;;;;;;;4.00;4.00;23.60;99.90;;;;;;4951620;28;8866;-65
2022/09/08 09:43:30;;;;;;;;;6.00;6.00;23.50;99.90;;;;;;4971569;28;8898;-66
2022/09/08 09:46:31;;;;;;;;;6.75;6.75;23.50;99.90;;;;;;4969600;28;8888;-67
2022/09/08 09:49:25;;;;;;;;;5.00;5.00;23.40;99.90;;;;;;4956890;28;8998;-66
2022/09/08 09:52:03;;;;;;;;;5.25;5.25;23.50;99.90;;;;;;4982432;28;8929;-66
2022/09/08 09:55:08;;;;;;;;;4.50;4.50;23.70;99.90;;;;;;4957313;28;8854;-66
2022/09/08 09:58:08;;;;;;;;;6.00;6.00;23.60;99.90;;;;;;4955518;28;8855;-66
2022/09/08 10:01:07;;;;;;;;;6.75;6.75;23.60;99.90;;;;;;4957652;28;8892;-67
2022/09/08 10:03:59;;;;;;;;;7.75;7.75;23.50;99.90;;;;;;4956595;28;8854;-66
2022/09/08 10:06:57;;;;;;;;;6.25;6.25;23.40;99.90;;;;;;4956514;28;8842;-66
2022/09/08 10:10:00;;;;;;;;;6.25;6.25;23.40;99.90;;;;;;4954835;28;9639;-67
2022/09/08 10:12:33;;;;;;;;;4.00;4.00;23.40;99.90;;;;;;4952387;28;8877;-67
2022/09/08 10:15:25;;;;;;;;;4.50;4.50;23.40;99.90;;;;;;4954352;28;8922;-65
2022/09/08 10:18:22;;;;;;;;;5.00;5.00;23.40;99.90;;;;;;4952511;28;8895;-66
2022/09/08 10:21:08;;;;;;;;;5.25;5.25;23.20;99.90;;;;;;4967641;28;8862;-67
2022/09/08 10:24:26;;;;;;;;;5.75;5.75;23.30;99.90;;;;;;4952821;28;8861;-66
2022/09/08 10:27:28;;;;;;;;;5.50;5.50;23.30;99.90;;;;;;4984895;28;8912;-67
2022/09/08 10:30:30;;;;;;;;;5.75;5.75;23.30;99.90;;;;;;4969062;28;8925;-66
2022/09/08 10:33:24;;;;;;;;;5.00;5.00;23.20;99.90;;;;;;4950763;28;9655;-65
2022/09/08 10:36:07;;;;;;;;;5.25;5.25;23.20;99.90;;;;;;4951959;28;8891;-67
2022/09/08 10:39:15;;;;;;;;;5.25;5.25;23.20;99.90;;;;;;4955341;28;9542;-66
2022/09/08 10:42:01;;;;;;;;;5.50;5.50;23.20;99.90;;;;;;4950817;28;8871;-66
2022/09/08 10:45:13;;;;;;;;;5.00;5.00;23.30;99.90;;;;;;4955626;28;8897;-66
2022/09/08 10:48:14;;;;;;;;;6.25;6.25;23.30;99.90;;;;;;4952375;28;8878;-66
2022/09/08 10:51:00;;;;;;;;;7.25;7.25;23.40;99.90;;;;;;4981793;28;8901;-67
2022/09/08 10:53:34;;;;;;;;;4.50;4.50;23.20;99.90;;;;;;4978237;28;9675;-67
2022/09/08 10:56:13;;;;;;;;;7.25;6.75;23.20;99.90;;;;;;4953404;28;8995;-67
2022/09/08 10:59:19;;;;;;;;;6.25;6.25;23.10;99.90;;;;;;4952137;28;8883;-66
2022/09/08 11:02:41;;;;;;;;;6.25;6.00;23.20;99.90;;;;;;4946612;28;9577;-66
2022/09/08 11:05:33;;;;;;;;;5.00;5.00;23.20;99.90;;;;;;4954758;28;8871;-67
2022/09/08 11:08:25;;;;;;;;;5.75;5.75;23.10;99.90;;;;;;4956260;28;8863;-68
2022/09/08 11:11:22;;;;;;;;;6.25;6.25;23.00;99.90;;;;;;4950118;28;8862;-66
2022/09/08 11:14:31;;;;;;;;;4.00;4.00;23.00;99.90;;;;;;4968377;28;8853;-68
2022/09/08 11:17:19;;;;;;;;;5.25;5.25;22.90;99.90;;;;;;4936901;28;8882;-67
2022/09/08 11:20:08;;;;;;;;;7.00;7.00;23.00;99.90;;;;;;4947047;28;8889;-68
2022/09/08 11:23:02;;;;;;;;;6.00;6.00;22.90;99.90;;;;;;4953513;28;8862;-67
2022/09/08 11:25:51;;;;;;;;;6.25;6.25;22.90;99.90;;;;;;4957373;28;9001;-67
2022/09/08 11:28:36;;;;;;;;;4.25;4.25;22.90;99.90;;;;;;4968044;28;8871;-68
2022/09/08 11:31:33;;;;;;;;;7.00;5.25;23.00;99.90;;;;;;4954236;28;8889;-67
2022/09/08 11:34:21;;;;;;;;;6.00;6.00;23.00;99.90;;;;;;4956660;28;8873;-67
2022/09/08 11:37:21;;;;;;;;;6.25;6.25;22.90;99.90;;;;;;4951315;28;8901;-66
2022/09/08 11:40:15;;;;;;;;;6.25;6.25;22.70;99.90;;;;;;4967743;28;8863;-68
2022/09/08 11:43:16;;;;;;;;;5.75;5.75;22.70;99.90;;;;;;4956563;28;9600;-68
2022/09/08 11:45:56;;;;;;;;;6.50;6.50;22.70;99.90;;;;;;4967561;28;8879;-66
2022/09/08 11:48:46;;;;;;;;;7.25;7.25;22.80;99.90;;;;;;4966966;28;9905;-66
2022/09/08 11:51:20;;;;;;;;;7.00;7.00;22.90;99.90;;;;;;4954661;28;8897;-65
2022/09/08 11:54:43;;;;;;;;;6.50;6.50;22.80;99.90;;;;;;4972637;28;8849;-66
2022/09/08 11:57:23;;;;;;;;;6.00;4.75;22.80;99.90;;;;;;4948392;28;8893;-66
2022/09/08 12:00:30;;;;;;;;;5.75;5.75;22.70;99.90;;;;;;4955132;28;8834;-67
2022/09/08 12:03:15;;;;;;;;;5.75;5.75;22.50;99.90;;;;;;4953058;28;8866;-67
2022/09/08 12:06:20;;;;;;;;;6.00;6.00;22.40;99.90;;;;;;4950032;28;8878;-66
2022/09/08 12:09:14;;;;;;;;;6.50;6.50;22.50;99.90;;;;;;4955804;28;8885;-64
2022/09/08 12:11:58;;;;;;;;;5.50;5.50;22.60;99.90;;;;;;4962618;28;9705;-66
2022/09/08 12:14:45;;;;;;;;;5.25;5.25;22.60;99.90;;;;;;4982927;28;8854;-65
2022/09/08 12:17:37;;;;;;;;;5.00;5.00;22.60;99.90;;;;;;4960004;28;8849;-65
2022/09/08 12:20:22;;;;;;;;;8.25;6.00;22.80;99.90;;;;;;4962212;28;8873;-68
2022/09/08 12:22:59;;;;;;;;;5.75;5.75;22.80;99.90;;;;;;4981242;28;8878;-68
2022/09/08 12:25:38;;;;;;;;;8.50;8.50;22.70;99.90;;;;;;4961804;28;8849;-66
2022/09/08 12:28:56;;;;;;;;;7.25;5.75;22.70;99.90;;;;;;4960961;28;8870;-65
2022/09/08 12:31:54;;;;;;;;;6.25;6.25;22.70;99.90;;;;;;4957119;28;8881;-64
2022/09/08 12:34:42;;;;;;;;;6.75;6.75;22.70;99.90;;;;;;4962014;28;9024;-66
2022/09/08 12:37:32;;;;;;;;;7.50;7.50;22.70;99.90;;;;;;4961977;28;8889;-65
2022/09/08 12:40:46;;;;;;;;;10.75;9.50;22.70;99.90;;;;;;4961763;28;9059;-68
2022/09/08 12:43:23;;;;;;;;;8.00;8.00;22.70;99.90;;;;;;4986315;28;8949;-67
2022/09/08 12:46:08;;;;;;;;;6.00;6.00;22.70;99.90;;;;;;4964016;28;8921;-66
2022/09/08 12:49:15;;;;;;;;;6.75;6.75;22.70;99.90;;;;;;4960576;28;8869;-65
2022/09/08 12:51:59;;;;;;;;;5.25;5.25;22.70;99.90;;;;;;4961293;28;8855;-65
2022/09/08 12:54:38;;;;;;;;;3.25;3.25;22.90;99.90;;;;;;4953306;28;8870;-65
2022/09/08 12:57:16;;;;;;;;;7.00;7.00;23.00;99.90;;;;;;4962208;28;8859;-65
2022/09/08 13:00:19;;;;;;;;;5.50;5.50;23.00;99.90;;;;;;4963330;28;8834;-67
2022/09/08 13:03:13;;;;;;;;;6.00;6.00;23.10;99.90;;;;;;4980626;28;8859;-66
2022/09/08 13:06:27;;;;;;;;;7.25;7.25;23.20;99.90;;;;;;4962392;28;8881;-66
2022/09/08 13:09:08;;;;;;;;;6.50;6.50;23.30;99.90;;;;;;4961520;28;8854;-67
2022/09/08 13:12:04;;;;;;;;;6.00;6.00;23.30;99.90;;;;;;4960470;28;8869;-67
2022/09/08 13:14:48;;;;;;;;;5.75;5.75;23.30;99.90;;;;;;4961709;28;8851;-66
2022/09/08 13:17:42;;;;;;;;;7.00;7.00;23.40;99.90;;;;;;4959511;28;8873;-66
2022/09/08 13:20:45;;;;;;;;;6.00;6.00;23.40;99.90;;;;;;4962916;28;8847;-66
2022/09/08 13:23:20;;;;;;;;;6.25;6.25;23.50;99.90;;;;;;4954429;28;8894;-66
2022/09/08 13:26:08;;;;;;;;;5.50;4.00;23.50;99.90;;;;;;4959293;28;9643;-65
2022/09/08 13:29:14;;;;;;;;;6.50;6.50;23.50;99.90;;;;;;4958813;28;8870;-65
2022/09/08 13:32:28;;;;;;;;;5.75;5.75;23.50;99.90;;;;;;4959590;28;8859;-66
2022/09/08 13:35:15;;;;;;;;;7.75;7.75;23.50;99.90;;;;;;4957586;28;8866;-66
2022/09/08 13:37:57;;;;;;;;;6.00;6.00;23.60;99.90;;;;;;4959654;28;8864;-65
2022/09/08 13:41:03;;;;;;;;;7.00;7.00;23.50;99.90;;;;;;4986403;28;8854;-67
2022/09/08 13:44:02;;;;;;;;;6.75;6.75;23.60;99.90;;;;;;4962262;28;8863;-65
2022/09/08 13:46:49;;;;;;;;;7.00;7.00;23.70;99.90;;;;;;4960560;28;8867;-64
2022/09/08 13:49:22;;;;;;;;;7.00;7.00;23.80;99.90;;;;;;4961225;28;8862;-65
2022/09/08 13:52:24;;;;;;;;;6.00;6.00;23.80;99.90;;;;;;4960683;28;8927;-66
2022/09/08 13:55:22;;;;;;;;;7.25;7.25;24.00;99.90;;;;;;4959816;28;8882;-65
2022/09/08 13:58:10;;;;;;;;;6.25;6.25;24.00;99.90;;;;;;4976028;28;8835;-68
2022/09/08 14:01:30;;;;;;;;;7.00;7.00;24.10;99.90;;;;;;4982882;28;8878;-67
2022/09/08 14:04:24;;;;;;;;;5.00;5.00;24.20;99.90;;;;;;4958777;28;9418;-66
2022/09/08 14:07:20;;;;;;;;;8.00;8.00;24.20;99.90;;;;;;4955100;28;8984;-67
2022/09/08 14:10:18;;;;;;;;;7.25;6.25;24.30;99.90;;;;;;4958685;28;8845;-67
2022/09/08 14:13:15;;;;;;;;;7.50;5.50;24.30;99.90;;;;;;4960769;28;9690;-67
2022/09/08 14:15:52;;;;;;;;;8.00;7.25;24.40;99.90;;;;;;4954723;28;8862;-67
2022/09/08 14:18:26;;;;;;;;;6.75;6.75;24.40;99.90;;;;;;4984944;28;8868;-67
2022/09/08 14:21:28;;;;;;;;;8.00;6.00;24.40;99.90;;;;;;4971477;28;8877;-67
2022/09/08 14:24:26;;;;;;;;;6.00;6.00;24.40;99.90;;;;;;4955825;28;8854;-66
2022/09/08 14:26:55;;;;;;;;;6.00;6.00;24.50;99.90;;;;;;4961760;28;8877;-66